Time;durP1;ratioP1;P1;durP2;ratioP2;P2;SDS_P1;SDS_P2;PMS_P1;PMS_P2;Temp;Humidity;BMP_temperature;BMP_pressure;BME280_temperature;BME280_humidity;BME280_pressure;Samples;Min_cycle;Max_cycle;Signal;HPM_P1;HPM_P2
2023/05/21 00:01:48;;;;;;;5.50;3.50;;;;;;;18.39;80.79;101008.00;106354;1254;62332;-89
2023/05/21 00:04:16;;;;;;;3.70;3.30;;;;;;;18.36;80.93;101003.83;106241;1259;71977;-91
2023/05/21 00:06:44;;;;;;;9.40;3.50;;;;;;;18.32;81.21;101006.63;106343;1255;64493;-89
2023/05/21 00:09:12;;;;;;;5.90;2.90;;;;;;;18.29;81.28;101006.00;106014;1261;74382;-90
2023/05/21 00:11:39;;;;;;;5.20;3.20;;;;;;;18.25;81.40;101003.35;106123;1254;61672;-89
2023/05/21 00:14:07;;;;;;;5.00;2.90;;;;;;;18.19;81.68;101002.05;106500;1259;60913;-89
2023/05/21 00:16:34;;;;;;;8.10;2.80;;;;;;;18.15;81.71;101006.68;106645;1255;74032;-89
2023/05/21 00:19:02;;;;;;;7.80;3.80;;;;;;;18.11;82.00;101005.63;107096;1253;65642;-89
2023/05/21 00:21:30;;;;;;;4.60;3.10;;;;;;;18.07;82.16;101005.95;107097;1259;74665;-91
2023/05/21 00:23:58;;;;;;;5.30;3.50;;;;;;;18.04;82.48;101003.22;106958;1259;61252;-90
2023/05/21 00:26:27;;;;;;;5.20;3.50;;;;;;;18.03;82.67;101004.69;106686;1254;61676;-90
2023/05/21 00:28:55;;;;;;;9.60;3.70;;;;;;;18.01;82.79;101000.91;106930;1253;73910;-91
2023/05/21 00:31:23;;;;;;;5.50;3.60;;;;;;;18.01;82.63;101000.08;106889;1253;65112;-90
2023/05/21 00:33:50;;;;;;;5.30;3.40;;;;;;;17.99;82.65;100996.54;107109;1258;73354;-91
2023/05/21 00:36:22;;;;;;;5.10;3.00;;;;;;;17.95;82.68;100991.08;107195;1259;62191;-90
2023/05/21 00:38:50;;;;;;;8.40;3.10;;;;;;;17.91;82.67;100990.11;109448;1253;62898;-91
2023/05/21 00:41:17;;;;;;;6.40;3.70;;;;;;;17.88;82.67;100988.42;107108;1254;73775;-88
2023/05/21 00:43:45;;;;;;;10.70;3.40;;;;;;;17.85;82.71;100985.52;107022;1258;64580;-90
2023/05/21 00:46:15;;;;;;;5.00;2.80;;;;;;;17.82;82.78;100984.70;107438;1254;73530;-89
2023/05/21 00:48:43;;;;;;;6.80;2.90;;;;;;;17.79;82.77;100984.06;108895;1254;61286;-91
2023/05/21 00:51:12;;;;;;;11.60;3.20;;;;;;;17.76;82.79;100979.84;107066;1255;61297;-90
2023/05/21 00:53:39;;;;;;;4.90;2.60;;;;;;;17.75;82.82;100981.70;106919;1253;74067;-91
2023/05/21 00:56:06;;;;;;;6.60;2.80;;;;;;;17.74;82.88;100979.15;107403;1255;65482;-88
2023/05/21 00:58:34;;;;;;;6.80;3.30;;;;;;;17.71;83.00;100979.55;106687;1264;73398;-92
2023/05/21 01:01:05;;;;;;;8.40;3.10;;;;;;;17.70;83.09;100975.60;106717;1256;62849;-91
2023/05/21 01:03:37;;;;;;;7.20;3.20;;;;;;;17.69;83.03;100978.67;107342;1259;60745;-89
2023/05/21 01:06:07;;;;;;;6.10;3.10;;;;;;;17.68;83.24;100976.10;106781;1260;74184;-91
2023/05/21 01:08:36;;;;;;;8.40;3.50;;;;;;;17.68;83.10;100976.83;106622;1260;64800;-90
2023/05/21 01:11:04;;;;;;;4.40;2.90;;;;;;;17.66;83.28;100972.64;109626;1253;74336;-90
2023/05/21 01:13:33;;;;;;;5.60;3.10;;;;;;;17.61;83.29;100974.23;109703;1256;61118;-90
2023/05/21 01:16:00;;;;;;;6.00;3.10;;;;;;;17.59;83.58;100970.48;109424;1254;61000;-90
2023/05/21 01:18:28;;;;;;;6.00;2.90;;;;;;;17.59;83.68;100969.09;109584;1253;73617;-89
2023/05/21 01:23:16;;;;;;;7.90;3.00;;;;;;;17.62;83.62;100967.27;103180;1289;615972;-93
2023/05/21 01:25:44;;;;;;;3.80;2.90;;;;;;;17.62;83.49;100964.64;105265;1264;60369;-90
2023/05/21 01:28:12;;;;;;;4.80;3.00;;;;;;;17.61;83.57;100965.36;105381;1270;61282;-89
2023/05/21 01:30:40;;;;;;;6.90;3.00;;;;;;;17.61;83.55;100966.98;105822;1260;72354;-90
2023/05/21 01:33:33;;;;;;;10.10;3.50;;;;;;;17.61;83.71;100966.30;106029;1262;65039;-88
2023/05/21 01:36:03;;;;;;;2.90;2.60;;;;;;;17.61;83.87;100966.25;107735;1257;739457;-88
2023/05/21 01:38:40;;;;;;;4.10;2.90;;;;;;;17.61;83.95;100965.05;108714;1257;61858;-91
2023/05/21 01:41:09;;;;;;;4.30;3.00;;;;;;;17.59;84.11;100963.79;106133;1266;60259;-90
2023/05/21 01:43:38;;;;;;;5.40;3.20;;;;;;;17.59;84.18;100963.95;106802;1257;73235;-90
2023/05/21 01:46:05;;;;;;;4.30;2.90;;;;;;;17.59;84.19;100961.99;106213;1262;63811;-91
2023/05/21 01:48:32;;;;;;;5.10;2.70;;;;;;;17.59;84.03;100963.44;105790;1264;73669;-89
2023/05/21 01:51:01;;;;;;;5.90;3.10;;;;;;;17.58;83.99;100967.45;105815;1257;61297;-91
2023/05/21 01:53:28;;;;;;;5.60;3.20;;;;;;;17.57;84.06;100968.77;106746;1262;60325;-92
2023/05/21 01:55:55;;;;;;;4.90;3.40;;;;;;;17.55;84.14;100971.70;106622;1257;73716;-91
2023/05/21 01:58:23;;;;;;;5.50;3.30;;;;;;;17.52;84.28;100976.20;106695;1265;63520;-93
2023/05/21 02:00:50;;;;;;;3.70;3.20;;;;;;;17.50;84.48;100978.73;107285;1257;72645;-90
2023/05/21 02:03:18;;;;;;;3.60;3.30;;;;;;;17.47;84.62;100977.70;108581;1257;60436;-89
2023/05/21 02:05:46;;;;;;;7.50;2.70;;;;;;;17.46;84.83;100979.20;106329;1257;60133;-92
2023/05/21 02:08:14;;;;;;;6.60;2.90;;;;;;;17.46;84.92;100978.81;107607;1257;73649;-89
2023/05/21 02:10:42;;;;;;;8.10;3.70;;;;;;;17.48;85.06;100978.52;108452;1257;63877;-90
2023/05/21 02:13:09;;;;;;;7.10;3.10;;;;;;;17.49;84.97;100971.94;108666;1257;73427;-90
2023/05/21 02:15:39;;;;;;;6.50;3.40;;;;;;;17.46;85.16;100974.83;109573;1253;59236;-92
2023/05/21 02:18:07;;;;;;;6.80;3.50;;;;;;;17.41;85.33;100974.64;108470;1253;60002;-90
2023/05/21 02:20:34;;;;;;;4.20;3.00;;;;;;;17.37;85.58;100975.34;107069;1254;74018;-90
2023/05/21 02:23:01;;;;;;;4.90;2.80;;;;;;;17.34;85.69;100974.54;106466;1257;64497;-91
2023/05/21 02:25:29;;;;;;;5.30;3.10;;;;;;;17.34;85.91;100972.77;108005;1252;72315;-89
2023/05/21 02:27:57;;;;;;;6.50;2.90;;;;;;;17.34;86.09;100971.73;109076;1253;61753;-89
2023/05/21 02:30:24;;;;;;;4.10;2.80;;;;;;;17.33;86.14;100972.31;108391;1252;61438;-92
2023/05/21 02:32:51;;;;;;;5.00;2.80;;;;;;;17.31;86.29;100976.73;107315;1253;74004;-90
2023/05/21 02:35:18;;;;;;;6.40;3.40;;;;;;;17.32;86.40;100981.23;106365;1257;64772;-90
2023/05/21 02:37:45;;;;;;;10.10;3.70;;;;;;;17.35;86.46;100982.21;106755;1255;73132;-92
2023/05/21 02:40:14;;;;;;;3.00;2.60;;;;;;;17.38;86.23;100985.72;106549;1256;61204;-89
2023/05/21 02:42:42;;;;;;;6.60;3.10;;;;;;;17.37;86.17;100988.29;107045;1253;60281;-89
2023/05/21 02:45:11;;;;;;;5.40;3.00;;;;;;;17.33;86.21;100985.81;109105;1253;72933;-90
2023/05/21 02:47:41;;;;;;;7.70;2.90;;;;;;;17.27;86.10;100985.95;107987;1254;63476;-90
2023/05/21 02:50:08;;;;;;;6.10;2.50;;;;;;;17.21;86.26;100988.54;108678;1253;72687;-87
2023/05/21 02:52:43;;;;;;;4.90;2.70;;;;;;;17.16;86.48;100991.23;108814;1253;60352;-87
2023/05/21 02:55:11;;;;;;;4.00;2.70;;;;;;;17.14;86.70;100994.23;107006;1256;60310;-91
2023/05/21 02:57:38;;;;;;;5.60;3.00;;;;;;;17.12;86.59;100989.27;105914;1253;73086;-91
2023/05/21 03:00:07;;;;;;;4.10;2.60;;;;;;;17.11;86.72;100989.37;106139;1254;65636;-90
2023/05/21 03:02:37;;;;;;;5.60;3.20;;;;;;;17.08;86.85;100992.06;106023;1254;73647;-90
2023/05/21 03:05:05;;;;;;;8.30;2.60;;;;;;;17.05;86.90;100993.58;106158;1253;63172;-91
2023/05/21 03:07:34;;;;;;;6.70;3.00;;;;;;;17.04;87.07;100993.96;106497;1250;60188;-93
2023/05/21 03:10:01;;;;;;;5.30;2.50;;;;;;;17.04;87.07;100995.05;106312;1250;72989;-91
2023/05/21 03:12:29;;;;;;;3.40;2.90;;;;;;;17.05;87.19;100996.73;106460;1257;64658;-89
2023/05/21 03:14:58;;;;;;;6.60;3.20;;;;;;;17.09;87.17;100999.97;107295;1254;73466;-90
2023/05/21 03:17:27;;;;;;;8.10;3.10;;;;;;;17.09;87.17;100999.87;109085;1250;61363;-87
2023/05/21 03:19:54;;;;;;;9.70;2.80;;;;;;;17.11;87.13;100997.27;108028;1250;61377;-88
2023/05/21 03:22:22;;;;;;;8.90;4.90;;;;;;;17.17;86.91;101002.06;106678;1250;73041;-90
2023/05/21 03:24:52;;;;;;;5.30;3.30;;;;;;;17.24;86.53;101002.92;107512;1250;65447;-90
2023/05/21 03:27:19;;;;;;;3.70;2.80;;;;;;;17.28;86.19;101002.95;108579;1250;72608;-89
2023/05/21 03:29:47;;;;;;;3.70;2.60;;;;;;;17.32;86.04;101002.98;105936;1257;61367;-92
2023/05/21 03:32:17;;;;;;;4.60;2.70;;;;;;;17.36;85.70;101004.63;106217;1250;61204;-90
2023/05/21 03:34:45;;;;;;;5.10;3.30;;;;;;;17.36;85.45;101008.67;106279;1254;73034;-92
2023/05/21 03:37:14;;;;;;;5.80;3.00;;;;;;;17.34;85.17;101008.11;106297;1251;63859;-91
2023/05/21 03:39:43;;;;;;;3.50;2.60;;;;;;;17.31;85.27;101010.69;106231;1254;73826;-91
2023/05/21 03:42:12;;;;;;;7.00;3.40;;;;;;;17.31;85.48;101012.95;106337;1250;61414;-90
2023/05/21 03:44:44;;;;;;;5.40;2.90;;;;;;;17.32;85.24;101015.67;106296;1256;59651;-89
2023/05/21 03:47:26;;;;;;;6.80;3.10;;;;;;;17.31;85.19;101014.94;106586;1250;73172;-89
2023/05/21 03:49:53;;;;;;;5.70;2.70;;;;;;;17.30;85.06;101019.94;107373;1250;63511;-88
2023/05/21 03:52:20;;;;;;;7.90;2.90;;;;;;;17.30;84.77;101019.40;106987;1250;73132;-91
2023/05/21 03:54:48;;;;;;;5.90;3.30;;;;;;;17.33;84.66;101015.45;107349;1254;61301;-90
2023/05/21 03:57:15;;;;;;;4.80;2.90;;;;;;;17.36;84.70;101015.88;106381;1252;60799;-92
2023/05/21 03:59:43;;;;;;;3.50;2.50;;;;;;;17.44;84.41;101013.90;106262;1250;72703;-91
2023/05/21 04:02:10;;;;;;;3.60;2.20;;;;;;;17.52;84.00;101016.73;106921;1250;62893;-92
2023/05/21 04:04:37;;;;;;;3.90;3.30;;;;;;;17.58;83.61;101013.88;106889;1250;73613;-89
2023/05/21 04:07:04;;;;;;;10.00;3.30;;;;;;;17.64;83.09;101012.55;109396;1250;61338;-88
2023/05/21 04:09:33;;;;;;;7.30;3.50;;;;;;;17.70;82.73;101012.43;108211;1250;60196;-91
2023/05/21 04:12:03;;;;;;;7.70;2.80;;;;;;;17.80;82.48;101011.23;106853;1250;73095;-89
2023/05/21 04:14:32;;;;;;;4.90;2.50;;;;;;;17.97;82.30;101011.77;106629;1256;65109;-89
2023/05/21 04:16:59;;;;;;;5.70;3.90;;;;;;;18.19;80.48;101018.14;106347;1251;72962;-90
2023/05/21 04:19:26;;;;;;;4.80;2.30;;;;;;;18.45;79.56;101018.79;106515;1250;61468;-91
2023/05/21 04:21:53;;;;;;;10.90;3.10;;;;;;;18.70;78.03;101018.58;106612;1251;61932;-93
2023/05/21 04:24:21;;;;;;;6.80;2.90;;;;;;;18.96;77.33;101024.08;106696;1250;73829;-93
2023/05/21 04:27:08;;;;;;;4.90;2.70;;;;;;;19.35;75.86;101028.88;107049;1256;64784;-95
2023/05/21 04:29:41;;;;;;;6.00;2.60;;;;;;;19.61;73.96;101030.43;107048;1250;73473;-91
2023/05/21 04:32:08;;;;;;;5.90;2.50;;;;;;;19.73;72.33;101032.27;106902;1251;60334;-94
2023/05/21 04:34:36;;;;;;;7.80;2.70;;;;;;;19.64;71.65;101040.29;106899;1251;61587;-92
2023/05/21 04:37:03;;;;;;;8.90;2.70;;;;;;;19.49;72.24;101046.40;108669;1250;73882;-90
2023/05/21 04:39:31;;;;;;;9.90;2.50;;;;;;;19.40;72.78;101045.42;108070;1250;64625;-91
2023/05/21 04:41:58;;;;;;;4.50;2.30;;;;;;;19.31;71.99;101042.01;108456;1250;72714;-92
2023/05/21 04:44:26;;;;;;;5.10;2.80;;;;;;;19.20;71.51;101043.15;107871;1250;60026;-90
2023/05/21 04:46:53;;;;;;;8.50;2.80;;;;;;;19.14;71.83;101044.23;108155;1250;61492;-91
2023/05/21 04:49:22;;;;;;;11.60;2.40;;;;;;;19.11;71.60;101047.94;108523;1250;72946;-92
2023/05/21 04:51:51;;;;;;;6.30;2.00;;;;;;;19.05;71.34;101045.41;108673;1250;65084;-90
2023/05/21 04:54:18;;;;;;;6.30;2.10;;;;;;;18.98;71.27;101047.83;107404;1250;72624;-90
2023/05/21 04:56:46;;;;;;;4.50;2.50;;;;;;;18.93;70.75;101047.23;108221;1250;60191;-91
2023/05/21 04:59:16;;;;;;;5.60;2.30;;;;;;;18.81;70.76;101046.50;108165;1251;60272;-87
2023/05/21 05:01:43;;;;;;;3.50;1.90;;;;;;;18.66;71.14;101041.91;106484;1250;74464;-90
2023/05/21 05:04:12;;;;;;;4.60;2.30;;;;;;;18.54;71.35;101040.12;106727;1254;63880;-91
2023/05/21 05:06:39;;;;;;;6.40;2.60;;;;;;;18.45;72.03;101037.91;106813;1256;72994;-92
2023/05/21 05:09:10;;;;;;;4.40;2.40;;;;;;;18.41;72.67;101037.34;106919;1250;60029;-90
2023/05/21 05:11:42;;;;;;;10.90;2.60;;;;;;;18.42;72.43;101038.17;108254;1250;60502;-91
2023/05/21 05:14:10;;;;;;;10.10;3.20;;;;;;;18.41;72.41;101032.19;107965;1253;74160;-89
2023/05/21 05:16:37;;;;;;;9.10;2.70;;;;;;;18.43;72.35;101031.49;107914;1250;63725;-90
2023/05/21 05:19:05;;;;;;;6.80;3.10;;;;;;;18.45;72.17;101029.41;107472;1251;72677;-92
2023/05/21 05:21:32;;;;;;;8.20;2.60;;;;;;;18.41;71.85;101031.83;107207;1250;60369;-93
2023/05/21 05:23:59;;;;;;;7.30;2.50;;;;;;;18.36;72.29;101029.84;107622;1250;60159;-92
2023/05/21 05:26:29;;;;;;;9.40;2.60;;;;;;;18.31;72.39;101031.87;107138;1250;72996;-91
2023/05/21 05:28:56;;;;;;;5.40;2.70;;;;;;;18.26;72.61;101040.64;108635;1250;65328;-88
2023/05/21 05:31:24;;;;;;;4.80;2.10;;;;;;;18.18;72.80;101039.98;109104;1250;72585;-90
2023/05/21 05:33:52;;;;;;;7.50;2.30;;;;;;;18.10;73.29;101039.30;108559;1250;60421;-94
2023/05/21 05:36:22;;;;;;;9.60;2.70;;;;;;;18.01;73.73;101038.63;107973;1250;60337;-94
2023/05/21 05:38:54;;;;;;;5.40;3.30;;;;;;;17.95;73.92;101040.73;107891;1250;73580;-93
2023/05/21 05:41:22;;;;;;;7.10;2.70;;;;;;;17.90;74.14;101041.38;108462;1250;64801;-91
2023/05/21 05:43:50;;;;;;;4.50;2.40;;;;;;;17.86;74.08;101044.33;108910;1250;73206;-91
2023/05/21 05:46:19;;;;;;;6.60;2.70;;;;;;;17.81;74.65;101046.13;109203;1250;60384;-91
2023/05/21 05:48:47;;;;;;;8.20;3.20;;;;;;;17.77;75.21;101044.73;109789;1250;60086;-95
2023/05/21 05:51:17;;;;;;;8.10;3.70;;;;;;;17.73;75.91;101043.08;109507;1250;74957;-94
2023/05/21 05:54:09;;;;;;;6.20;2.40;;;;;;;17.72;76.25;101034.67;109756;1248;63468;-90
2023/05/21 05:56:43;;;;;;;;;;;;;;;17.73;76.36;101034.80;109304;1249;75188;-93
2023/05/21 05:59:18;;;;;;;7.10;3.00;;;;;;;17.72;76.22;101033.30;108969;1257;58877;-94
2023/05/21 06:02:30;;;;;;;6.70;2.30;;;;;;;17.65;76.38;101033.67;108900;1255;60177;-95
2023/05/21 06:05:01;;;;;;;4.70;2.70;;;;;;;17.58;76.90;101031.09;108872;1255;73562;-93
2023/05/21 06:07:30;;;;;;;6.70;2.50;;;;;;;17.54;77.29;101031.27;108710;1255;64531;-91
2023/05/21 06:10:07;;;;;;;4.60;2.30;;;;;;;17.54;77.73;101030.02;108615;1255;72626;-93
2023/05/21 06:14:41;;;;;;;8.20;2.80;;;;;;;17.64;78.64;101025.29;106959;1282;616657;-92
2023/05/21 06:28:42;;;;;;;11.10;3.40;;;;;;;18.22;78.23;101031.70;107014;1279;616197;-95
2023/05/21 06:31:10;;;;;;;5.80;2.80;;;;;;;18.34;77.58;101036.20;108128;1263;167129;-94
2023/05/21 06:33:44;;;;;;;5.20;2.90;;;;;;;18.31;77.41;101035.05;108706;1263;59599;-90
2023/05/21 06:36:12;;;;;;;8.30;2.70;;;;;;;18.31;77.45;101031.02;108840;1262;73311;-91
2023/05/21 06:38:45;;;;;;;4.30;2.70;;;;;;;18.31;77.08;101027.64;108858;1263;64697;-93
2023/05/21 06:41:17;;;;;;;4.30;2.80;;;;;;;18.28;77.00;101024.53;107748;1263;72489;-92
2023/05/21 06:43:54;;;;;;;4.40;2.80;;;;;;;18.28;77.15;101023.27;107334;1263;61676;-94
2023/05/21 06:46:46;;;;;;;6.50;3.30;;;;;;;18.30;76.95;101022.55;106807;1259;62211;-91
2023/05/21 06:49:15;;;;;;;6.60;3.20;;;;;;;18.39;77.11;101021.56;106980;1259;73378;-92
2023/05/21 06:51:42;;;;;;;5.50;2.50;;;;;;;18.52;77.04;101022.95;107184;1253;64837;-91
2023/05/21 06:54:11;;;;;;;6.40;2.70;;;;;;;18.65;76.11;101024.29;108238;1252;74761;-92
2023/05/21 06:56:40;;;;;;;4.50;2.50;;;;;;;18.74;75.77;101024.01;108636;1253;61247;-91
2023/05/21 06:59:11;;;;;;;5.70;3.10;;;;;;;18.83;75.65;101020.60;107538;1252;60946;-93
2023/05/21 07:01:41;;;;;;;8.90;3.00;;;;;;;18.91;75.56;101018.86;107350;1253;72331;-90
2023/05/21 07:04:10;;;;;;;5.80;2.80;;;;;;;18.97;75.72;101018.02;106901;1252;64463;-90
2023/05/21 07:06:38;;;;;;;6.60;2.70;;;;;;;19.02;75.74;101019.30;107013;1254;74474;-92
2023/05/21 07:09:07;;;;;;;7.30;4.40;;;;;;;19.08;75.47;101025.13;107408;1254;61538;-90
2023/05/21 07:11:35;;;;;;;8.50;3.20;;;;;;;19.10;75.88;101023.36;106899;1253;62381;-93
2023/05/21 07:14:03;;;;;;;5.20;3.10;;;;;;;19.12;75.77;101021.08;106944;1252;75509;-95
2023/05/21 07:16:31;;;;;;;5.40;3.00;;;;;;;19.13;75.68;101016.94;107373;1252;64763;-92
2023/05/21 07:19:01;;;;;;;6.30;2.80;;;;;;;19.12;75.33;101015.80;108133;1253;74431;-92
2023/05/21 07:21:43;;;;;;;5.50;2.60;;;;;;;19.07;75.09;101015.64;107846;1252;59669;-91
2023/05/21 07:24:12;;;;;;;4.70;2.90;;;;;;;19.00;74.72;101005.84;107388;1260;61194;-90
2023/05/21 07:26:39;;;;;;;7.30;3.80;;;;;;;18.93;74.87;101006.41;108500;1252;73783;-90
2023/05/21 07:29:10;;;;;;;9.00;3.10;;;;;;;18.88;74.90;101006.58;109084;1252;64470;-89
2023/05/21 07:31:41;;;;;;;6.40;4.10;;;;;;;18.82;75.16;101002.45;107462;1254;72584;-88
2023/05/21 07:34:10;;;;;;;23.30;18.70;;;;;;;18.78;75.64;101003.55;106866;1252;63620;-89
2023/05/21 07:36:40;;;;;;;10.20;4.10;;;;;;;18.75;76.07;101002.88;108371;1252;61260;-91
2023/05/21 07:39:09;;;;;;;5.40;2.90;;;;;;;18.76;76.07;101004.58;108992;1252;72805;-91
2023/05/21 07:41:37;;;;;;;8.80;3.50;;;;;;;18.71;75.94;101002.67;108962;1253;63014;-91
2023/05/21 07:44:25;;;;;;;9.60;2.70;;;;;;;18.65;76.01;101005.02;109354;1253;73389;-91
2023/05/21 07:46:59;;;;;;;6.70;3.00;;;;;;;18.60;76.12;101005.77;109212;1253;60736;-92
2023/05/21 07:49:34;;;;;;;8.30;3.50;;;;;;;18.59;76.61;101002.88;109543;1253;61185;-90
2023/05/21 07:52:11;;;;;;;11.30;3.60;;;;;;;18.63;77.03;101001.05;109290;1254;73628;-91
2023/05/21 07:54:43;;;;;;;8.20;2.70;;;;;;;18.71;76.88;100999.31;109038;1256;65407;-92
2023/05/21 07:57:26;;;;;;;4.30;2.90;;;;;;;18.83;76.88;100991.71;108636;1256;73831;-91
2023/05/21 07:59:59;;;;;;;;;;;;;;;18.95;76.53;100992.98;107305;1260;61307;-91
2023/05/21 08:02:29;;;;;;;4.20;2.60;;;;;;;19.03;76.50;100993.45;108131;1257;60952;-91
2023/05/21 08:05:17;;;;;;;6.70;2.90;;;;;;;19.16;76.44;100995.77;107159;1255;75121;-91
2023/05/21 08:07:45;;;;;;;6.60;2.60;;;;;;;19.30;76.22;100998.17;106905;1257;66079;-91
2023/05/21 08:10:12;;;;;;;5.20;2.50;;;;;;;19.43;76.11;101001.23;106822;1259;75383;-93
2023/05/21 08:12:40;;;;;;;5.30;2.60;;;;;;;19.56;75.88;101000.60;106941;1262;60969;-91
2023/05/21 08:15:08;;;;;;;9.70;2.80;;;;;;;19.66;75.48;101000.87;107727;1257;61611;-93
2023/05/21 08:17:40;;;;;;;7.30;3.00;;;;;;;19.77;74.99;100998.84;109373;1257;75089;-92
2023/05/21 08:20:10;;;;;;;6.20;2.50;;;;;;;19.88;74.75;100996.98;109090;1257;63750;-92
2023/05/21 08:22:37;;;;;;;8.80;2.90;;;;;;;19.95;74.34;100996.97;109025;1257;71567;-93
2023/05/21 08:25:07;;;;;;;5.30;2.40;;;;;;;20.07;73.24;101000.63;109177;1256;61279;-92
2023/05/21 08:27:34;;;;;;;3.90;2.30;;;;;;;20.17;73.26;100999.17;108379;1257;61326;-93
2023/05/21 08:30:05;;;;;;;4.80;3.00;;;;;;;20.29;73.05;100999.63;106764;1255;74997;-93
2023/05/21 08:32:34;;;;;;;3.20;2.70;;;;;;;20.46;72.80;100999.98;106704;1261;66019;-91
2023/05/21 08:35:02;;;;;;;5.00;2.30;;;;;;;20.68;72.47;101003.02;106640;1259;73359;-93
2023/05/21 08:37:59;;;;;;;5.80;2.30;;;;;;;21.02;71.33;101004.75;106451;1260;61280;-91
2023/05/21 08:40:53;;;;;;;5.70;2.40;;;;;;;21.29;69.65;101004.89;106163;1261;61220;-89
2023/05/21 08:43:21;;;;;;;6.20;2.70;;;;;;;21.49;68.51;101007.44;106583;1263;74437;-93
2023/05/21 08:46:05;;;;;;;4.50;2.30;;;;;;;21.67;66.96;101005.75;106475;1264;65740;-93
2023/05/21 08:48:37;;;;;;;7.50;2.60;;;;;;;21.78;65.71;100998.85;106883;1263;73322;-91
2023/05/21 08:51:06;;;;;;;3.60;2.60;;;;;;;21.81;65.33;101004.89;106755;1257;62451;-92
2023/05/21 08:53:44;;;;;;;4.40;2.60;;;;;;;21.82;66.16;101000.69;107173;1257;61029;-90
2023/05/21 08:56:15;;;;;;;12.00;2.60;;;;;;;21.84;66.23;101001.60;107101;1263;74868;-92
2023/05/21 08:58:51;;;;;;;7.00;2.40;;;;;;;21.79;66.39;101002.63;108097;1259;65974;-92
2023/05/21 09:01:22;;;;;;;4.70;2.90;;;;;;;21.75;67.48;101005.02;108953;1264;74867;-90
2023/05/21 09:04:04;;;;;;;6.80;2.70;;;;;;;21.75;67.81;101003.70;108407;1258;61727;-93
2023/05/21 09:06:48;;;;;;;3.40;2.90;;;;;;;21.76;67.53;101001.00;108782;1257;61155;-93
2023/05/21 09:09:40;;;;;;;11.10;7.40;;;;;;;21.73;68.23;101000.89;109090;1260;73943;-94
2023/05/21 09:12:20;;;;;;;4.40;3.50;;;;;;;21.72;69.28;101001.11;109224;1258;64798;-93
2023/05/21 09:14:49;;;;;;;6.60;3.30;;;;;;;21.77;69.62;100999.45;108046;1258;74004;-94
2023/05/21 09:17:35;;;;;;;22.40;19.90;;;;;;;21.82;69.52;100997.62;106758;1266;61450;-90
2023/05/21 09:20:25;;;;;;;6.80;4.40;;;;;;;21.87;69.61;100999.42;107084;1265;61015;-90
2023/05/21 09:22:58;;;;;;;5.60;2.90;;;;;;;21.94;68.59;101000.02;107125;1258;74827;-92
2023/05/21 09:25:29;;;;;;;6.40;3.10;;;;;;;22.01;68.12;101002.35;106904;1258;62763;-92
2023/05/21 09:28:00;;;;;;;5.60;3.60;;;;;;;22.04;66.99;100999.83;107007;1258;74926;-90
2023/05/21 09:30:34;;;;;;;9.70;8.30;;;;;;;22.07;66.99;100994.59;107169;1257;61167;-91
2023/05/21 09:33:28;;;;;;;6.90;3.80;;;;;;;22.18;67.48;100989.16;104899;1289;601471;-91
2023/05/21 09:36:06;;;;;;;9.40;4.30;;;;;;;22.36;67.30;100992.71;106793;1267;61059;-88
2023/05/21 09:38:33;;;;;;;12.90;8.30;;;;;;;22.54;67.15;100989.15;106401;1273;61992;-91
2023/05/21 09:41:05;;;;;;;7.80;5.20;;;;;;;22.73;65.92;100986.48;107152;1264;74248;-92
2023/05/21 09:43:34;;;;;;;5.90;3.80;;;;;;;22.88;64.36;100986.65;108011;1262;64837;-92
2023/05/21 09:46:05;;;;;;;5.10;3.70;;;;;;;23.01;62.54;100991.61;105840;1265;799222;-91
2023/05/21 09:48:41;;;;;;;6.90;4.30;;;;;;;23.14;61.44;100988.95;106864;1262;61516;-94
2023/05/21 09:51:16;;;;;;;16.40;14.70;;;;;;;23.21;59.65;100986.41;107066;1260;62184;-94
2023/05/21 09:54:00;;;;;;;7.70;6.90;;;;;;;23.19;58.75;100982.86;107896;1254;73996;-92
2023/05/21 09:56:30;;;;;;;4.20;3.50;;;;;;;23.17;59.26;100984.79;108053;1254;64989;-92
2023/05/21 09:59:02;;;;;;;5.70;3.60;;;;;;;23.24;59.05;100982.50;109122;1257;73578;-92
2023/05/21 10:01:32;;;;;;;7.10;3.60;;;;;;;23.33;58.97;100977.27;108743;1254;60128;-94
2023/05/21 10:04:07;;;;;;;6.20;4.10;;;;;;;23.42;57.78;100975.14;107495;1261;59567;-94
2023/05/21 10:06:46;;;;;;;5.80;3.60;;;;;;;23.64;55.93;100974.05;108014;1260;71874;-96
2023/05/21 10:09:27;;;;;;;4.40;2.80;;;;;;;23.87;53.40;100965.41;107896;1259;66288;-94
2023/05/21 10:11:56;;;;;;;9.40;3.00;;;;;;;24.21;52.94;100966.13;107548;1254;74711;-94
2023/05/21 10:14:33;;;;;;;10.60;3.40;;;;;;;24.57;52.58;100969.15;107942;1257;62832;-95
2023/05/21 10:17:15;;;;;;;41.30;32.40;;;;;;;25.06;50.44;100965.14;108396;1254;60906;-96
2023/05/21 10:19:45;;;;;;;14.00;10.10;;;;;;;25.48;48.16;100963.73;107405;1255;74908;-92
2023/05/21 10:22:13;;;;;;;6.00;3.70;;;;;;;25.80;46.33;100965.33;107811;1254;64690;-94
2023/05/21 10:24:42;;;;;;;57.40;51.90;;;;;;;26.12;46.02;100966.27;109076;1254;73791;-93
2023/05/21 10:27:12;;;;;;;12.60;10.80;;;;;;;26.44;44.85;100963.98;106921;1257;62319;-95
2023/05/21 10:29:40;;;;;;;9.60;4.10;;;;;;;26.69;44.51;100957.06;106904;1254;62316;-94
2023/05/21 10:32:12;;;;;;;5.50;4.30;;;;;;;26.94;43.46;100953.04;107368;1255;74831;-93
2023/05/21 10:34:39;;;;;;;5.40;2.90;;;;;;;27.13;42.48;100946.55;107221;1254;66452;-94
2023/05/21 10:37:09;;;;;;;11.30;3.70;;;;;;;27.38;42.23;100940.42;107134;1254;73568;-93
2023/05/21 10:39:37;;;;;;;7.00;3.50;;;;;;;27.61;41.26;100935.96;107134;1258;61121;-94
2023/05/21 10:42:21;;;;;;;7.70;3.10;;;;;;;27.85;40.44;100935.96;107821;1254;61117;-94
2023/05/21 10:45:02;;;;;;;6.50;3.20;;;;;;;28.12;39.49;100935.36;107735;1254;74997;-95
2023/05/21 10:47:43;;;;;;;6.00;2.70;;;;;;;28.32;38.20;100933.46;108984;1254;64829;-93
2023/05/21 10:50:20;;;;;;;8.40;3.40;;;;;;;28.50;38.40;100930.14;109567;1255;71067;-93
2023/05/21 10:53:29;;;;;;;7.30;3.00;;;;;;;28.67;36.65;100921.95;108964;1260;61548;-94
2023/05/21 11:00:15;;;;;;;20.20;18.30;;;;;;;28.84;36.76;100917.66;105037;1293;612858;-96
2023/05/21 11:03:05;;;;;;;38.10;34.00;;;;;;;28.98;37.22;100911.86;108281;1269;59408;-96
2023/05/21 11:05:52;;;;;;;28.50;25.80;;;;;;;29.05;37.45;100909.30;108644;1264;59974;-91
2023/05/21 11:08:35;;;;;;;5.70;4.40;;;;;;;29.09;36.81;100909.98;108213;1261;72264;-95
2023/05/21 11:11:42;;;;;;;6.10;3.70;;;;;;;29.11;36.62;100912.81;107930;1261;65027;-94
2023/05/21 11:14:39;;;;;;;6.80;2.70;;;;;;;28.91;36.21;100914.21;107522;1259;73841;-93
2023/05/21 11:18:37;;;;;;;5.30;3.20;;;;;;;28.87;36.26;100908.44;105225;1291;613476;-95
2023/05/21 11:21:42;;;;;;;4.10;3.70;;;;;;;28.82;35.52;100907.44;108096;1262;61380;-93
2023/05/21 11:24:26;;;;;;;5.60;3.30;;;;;;;28.74;35.86;100905.35;108742;1255;60328;-92
2023/05/21 11:27:03;;;;;;;6.40;3.00;;;;;;;28.65;35.92;100897.49;108854;1255;73866;-93
2023/05/21 11:29:43;;;;;;;6.40;3.60;;;;;;;28.54;36.59;100899.36;107927;1259;64810;-94
2023/05/21 11:37:17;;;;;;;25.10;22.40;;;;;;;28.09;38.44;100892.75;104946;1289;601467;-95
2023/05/21 11:40:08;;;;;;;13.60;10.60;;;;;;;27.86;38.56;100893.04;108633;1258;61275;-93
2023/05/21 11:43:19;;;;;;;9.60;4.00;;;;;;;27.54;38.74;100893.08;108491;1267;59472;-94
2023/05/21 11:45:53;;;;;;;6.20;3.80;;;;;;;27.32;39.13;100899.52;107754;1267;73378;-91
2023/05/21 11:48:26;;;;;;;;;;;;;;;27.13;39.44;100901.08;108107;1270;66815;-92
2023/05/21 11:54:01;;;;;;;;;;;;;;;26.87;39.82;100919.27;107435;1266;62563;-94
2023/05/21 11:56:40;;;;;;;8.60;2.30;;;;;;;26.75;39.46;100925.48;107452;1264;62522;-95
2023/05/21 11:59:14;;;;;;;5.20;2.50;;;;;;;26.69;40.01;100927.31;107803;1272;70732;-95
2023/05/21 12:01:52;;;;;;;3.00;2.80;;;;;;;26.68;40.44;100940.71;108704;1265;66364;-94
2023/05/21 12:04:59;;;;;;;7.70;4.20;;;;;;;26.69;40.70;100957.48;109335;1257;71746;-93
2023/05/21 12:07:48;;;;;;;6.90;2.90;;;;;;;26.56;41.02;100963.67;109216;1257;59243;-94
2023/05/21 12:11:03;;;;;;;7.50;3.20;;;;;;;26.36;41.32;100978.61;108740;1256;61770;-95